sensor_id;sensor_type;location;lat;lon;timestamp;P1;durP1;ratioP1;P2;durP2;ratioP2
8819;SDS011;4446;50.876;4.736;2023-05-18T00:00:53;4.18;;;2.50;;
8819;SDS011;4446;50.876;4.736;2023-05-18T00:03:21;5.43;;;2.60;;
8819;SDS011;4446;50.876;4.736;2023-05-18T00:05:49;4.13;;;2.38;;
8819;SDS011;4446;50.876;4.736;2023-05-18T00:08:16;3.58;;;2.00;;
8819;SDS011;4446;50.876;4.736;2023-05-18T00:10:43;5.05;;;2.30;;
8819;SDS011;4446;50.876;4.736;2023-05-18T00:13:10;3.53;;;2.00;;
8819;SDS011;4446;50.876;4.736;2023-05-18T00:15:37;4.30;;;2.22;;
8819;SDS011;4446;50.876;4.736;2023-05-18T00:18:04;5.82;;;2.33;;
8819;SDS011;4446;50.876;4.736;2023-05-18T00:20:31;6.60;;;2.55;;
8819;SDS011;4446;50.876;4.736;2023-05-18T00:23:00;3.17;;;2.20;;
8819;SDS011;4446;50.876;4.736;2023-05-18T00:25:27;5.78;;;1.88;;
8819;SDS011;4446;50.876;4.736;2023-05-18T00:27:54;3.38;;;2.58;;
8819;SDS011;4446;50.876;4.736;2023-05-18T00:30:21;3.72;;;2.30;;
8819;SDS011;4446;50.876;4.736;2023-05-18T00:32:49;4.60;;;2.20;;
8819;SDS011;4446;50.876;4.736;2023-05-18T00:35:17;9.00;;;2.75;;
8819;SDS011;4446;50.876;4.736;2023-05-18T00:37:44;4.28;;;2.10;;
8819;SDS011;4446;50.876;4.736;2023-05-18T00:40:12;6.72;;;2.60;;
8819;SDS011;4446;50.876;4.736;2023-05-18T00:42:39;5.07;;;2.40;;
8819;SDS011;4446;50.876;4.736;2023-05-18T00:45:06;5.35;;;2.50;;
8819;SDS011;4446;50.876;4.736;2023-05-18T00:47:34;8.10;;;2.30;;
8819;SDS011;4446;50.876;4.736;2023-05-18T00:50:01;5.00;;;2.10;;
8819;SDS011;4446;50.876;4.736;2023-05-18T00:52:28;6.15;;;2.42;;
8819;SDS011;4446;50.876;4.736;2023-05-18T00:54:56;6.40;;;2.50;;
8819;SDS011;4446;50.876;4.736;2023-05-18T00:57:25;4.50;;;2.05;;
8819;SDS011;4446;50.876;4.736;2023-05-18T00:59:53;3.67;;;2.08;;
8819;SDS011;4446;50.876;4.736;2023-05-18T01:02:21;9.05;;;2.42;;
8819;SDS011;4446;50.876;4.736;2023-05-18T01:04:48;2.10;;;1.85;;
8819;SDS011;4446;50.876;4.736;2023-05-18T01:07:16;8.10;;;2.95;;
8819;SDS011;4446;50.876;4.736;2023-05-18T01:09:47;2.85;;;2.20;;
8819;SDS011;4446;50.876;4.736;2023-05-18T01:12:16;4.95;;;2.30;;
8819;SDS011;4446;50.876;4.736;2023-05-18T01:14:49;4.38;;;2.03;;
8819;SDS011;4446;50.876;4.736;2023-05-18T01:17:25;4.30;;;2.28;;
8819;SDS011;4446;50.876;4.736;2023-05-18T01:20:07;3.97;;;2.50;;
8819;SDS011;4446;50.876;4.736;2023-05-18T01:26:07;5.38;;;2.40;;
8819;SDS011;4446;50.876;4.736;2023-05-18T01:28:39;3.03;;;1.98;;
8819;SDS011;4446;50.876;4.736;2023-05-18T01:31:08;4.53;;;1.95;;
8819;SDS011;4446;50.876;4.736;2023-05-18T01:33:36;5.80;;;2.38;;
8819;SDS011;4446;50.876;4.736;2023-05-18T01:36:03;6.10;;;2.25;;
8819;SDS011;4446;50.876;4.736;2023-05-18T01:38:30;4.15;;;2.95;;
8819;SDS011;4446;50.876;4.736;2023-05-18T01:40:59;8.05;;;3.08;;
8819;SDS011;4446;50.876;4.736;2023-05-18T01:43:34;4.32;;;2.17;;
8819;SDS011;4446;50.876;4.736;2023-05-18T01:46:04;4.65;;;2.75;;
8819;SDS011;4446;50.876;4.736;2023-05-18T01:48:48;3.03;;;2.22;;
8819;SDS011;4446;50.876;4.736;2023-05-18T01:51:19;6.75;;;2.28;;
8819;SDS011;4446;50.876;4.736;2023-05-18T01:53:49;5.45;;;2.80;;
8819;SDS011;4446;50.876;4.736;2023-05-18T01:56:20;8.75;;;2.45;;
8819;SDS011;4446;50.876;4.736;2023-05-18T01:58:49;7.80;;;2.80;;
8819;SDS011;4446;50.876;4.736;2023-05-18T02:01:18;4.25;;;2.50;;
8819;SDS011;4446;50.876;4.736;2023-05-18T02:03:46;4.88;;;2.58;;
8819;SDS011;4446;50.876;4.736;2023-05-18T02:06:13;7.00;;;2.60;;
8819;SDS011;4446;50.876;4.736;2023-05-18T02:08:40;5.22;;;2.42;;
8819;SDS011;4446;50.876;4.736;2023-05-18T02:11:08;4.72;;;2.95;;
8819;SDS011;4446;50.876;4.736;2023-05-18T02:13:35;3.08;;;2.20;;
8819;SDS011;4446;50.876;4.736;2023-05-18T02:16:04;5.10;;;2.20;;
8819;SDS011;4446;50.876;4.736;2023-05-18T02:18:31;4.45;;;2.40;;
8819;SDS011;4446;50.876;4.736;2023-05-18T02:21:00;4.85;;;2.72;;
8819;SDS011;4446;50.876;4.736;2023-05-18T02:23:28;5.88;;;3.42;;
8819;SDS011;4446;50.876;4.736;2023-05-18T02:25:55;7.65;;;2.47;;
8819;SDS011;4446;50.876;4.736;2023-05-18T02:28:22;5.55;;;3.10;;
8819;SDS011;4446;50.876;4.736;2023-05-18T02:30:49;5.63;;;2.38;;
8819;SDS011;4446;50.876;4.736;2023-05-18T02:33:17;5.35;;;2.55;;
8819;SDS011;4446;50.876;4.736;2023-05-18T02:35:50;6.20;;;2.58;;
8819;SDS011;4446;50.876;4.736;2023-05-18T02:38:18;6.45;;;2.65;;
8819;SDS011;4446;50.876;4.736;2023-05-18T02:40:45;7.65;;;2.70;;
8819;SDS011;4446;50.876;4.736;2023-05-18T02:43:13;4.75;;;2.38;;
8819;SDS011;4446;50.876;4.736;2023-05-18T02:45:40;6.90;;;2.97;;
8819;SDS011;4446;50.876;4.736;2023-05-18T02:48:07;5.45;;;2.28;;
8819;SDS011;4446;50.876;4.736;2023-05-18T02:50:35;3.28;;;2.30;;
8819;SDS011;4446;50.876;4.736;2023-05-18T02:53:02;4.18;;;2.40;;
8819;SDS011;4446;50.876;4.736;2023-05-18T02:55:29;5.10;;;2.97;;
8819;SDS011;4446;50.876;4.736;2023-05-18T02:57:56;5.63;;;2.50;;
8819;SDS011;4446;50.876;4.736;2023-05-18T03:00:24;3.40;;;2.42;;
8819;SDS011;4446;50.876;4.736;2023-05-18T03:02:51;4.88;;;2.50;;
8819;SDS011;4446;50.876;4.736;2023-05-18T03:05:21;3.58;;;2.72;;
8819;SDS011;4446;50.876;4.736;2023-05-18T03:07:50;4.43;;;2.50;;
8819;SDS011;4446;50.876;4.736;2023-05-18T03:10:18;5.15;;;2.33;;
8819;SDS011;4446;50.876;4.736;2023-05-18T03:12:45;5.82;;;3.33;;
8819;SDS011;4446;50.876;4.736;2023-05-18T03:15:13;5.32;;;2.35;;
8819;SDS011;4446;50.876;4.736;2023-05-18T03:17:40;5.68;;;3.05;;
8819;SDS011;4446;50.876;4.736;2023-05-18T03:20:08;5.72;;;2.22;;
8819;SDS011;4446;50.876;4.736;2023-05-18T03:22:35;7.05;;;3.03;;
8819;SDS011;4446;50.876;4.736;2023-05-18T03:25:04;5.28;;;3.05;;
8819;SDS011;4446;50.876;4.736;2023-05-18T03:27:32;5.28;;;2.60;;
8819;SDS011;4446;50.876;4.736;2023-05-18T03:29:59;7.03;;;2.90;;
8819;SDS011;4446;50.876;4.736;2023-05-18T03:32:26;4.28;;;2.75;;
8819;SDS011;4446;50.876;4.736;2023-05-18T03:34:55;6.22;;;2.75;;
8819;SDS011;4446;50.876;4.736;2023-05-18T03:37:25;3.85;;;2.88;;
8819;SDS011;4446;50.876;4.736;2023-05-18T03:39:52;5.10;;;3.05;;
8819;SDS011;4446;50.876;4.736;2023-05-18T03:42:22;7.22;;;2.60;;
8819;SDS011;4446;50.876;4.736;2023-05-18T03:44:49;7.22;;;2.70;;
8819;SDS011;4446;50.876;4.736;2023-05-18T03:47:16;6.35;;;2.75;;
8819;SDS011;4446;50.876;4.736;2023-05-18T03:49:43;6.80;;;2.65;;
8819;SDS011;4446;50.876;4.736;2023-05-18T03:52:10;4.70;;;2.40;;
8819;SDS011;4446;50.876;4.736;2023-05-18T03:54:39;6.00;;;2.55;;
8819;SDS011;4446;50.876;4.736;2023-05-18T03:57:08;4.35;;;2.45;;
8819;SDS011;4446;50.876;4.736;2023-05-18T03:59:36;4.60;;;2.30;;
8819;SDS011;4446;50.876;4.736;2023-05-18T04:02:03;5.32;;;2.38;;
8819;SDS011;4446;50.876;4.736;2023-05-18T04:04:31;5.18;;;2.60;;
8819;SDS011;4446;50.876;4.736;2023-05-18T04:06:58;3.30;;;2.15;;
8819;SDS011;4446;50.876;4.736;2023-05-18T04:09:30;9.07;;;2.85;;
8819;SDS011;4446;50.876;4.736;2023-05-18T04:11:57;6.45;;;2.45;;
8819;SDS011;4446;50.876;4.736;2023-05-18T04:14:24;6.25;;;2.67;;
8819;SDS011;4446;50.876;4.736;2023-05-18T04:16:53;7.63;;;3.17;;
8819;SDS011;4446;50.876;4.736;2023-05-18T04:19:22;5.93;;;2.67;;
8819;SDS011;4446;50.876;4.736;2023-05-18T04:21:49;5.28;;;2.80;;
8819;SDS011;4446;50.876;4.736;2023-05-18T04:24:16;6.07;;;2.70;;
8819;SDS011;4446;50.876;4.736;2023-05-18T04:26:43;4.22;;;2.70;;
8819;SDS011;4446;50.876;4.736;2023-05-18T04:29:10;5.25;;;2.70;;
8819;SDS011;4446;50.876;4.736;2023-05-18T04:31:37;5.10;;;2.78;;
8819;SDS011;4446;50.876;4.736;2023-05-18T04:34:08;6.43;;;3.17;;
8819;SDS011;4446;50.876;4.736;2023-05-18T04:36:37;5.72;;;3.13;;
8819;SDS011;4446;50.876;4.736;2023-05-18T04:39:06;5.15;;;2.90;;
8819;SDS011;4446;50.876;4.736;2023-05-18T04:41:35;6.47;;;2.60;;
8819;SDS011;4446;50.876;4.736;2023-05-18T04:44:02;7.93;;;2.67;;
8819;SDS011;4446;50.876;4.736;2023-05-18T04:46:29;9.02;;;3.70;;
8819;SDS011;4446;50.876;4.736;2023-05-18T04:48:57;6.22;;;3.00;;
8819;SDS011;4446;50.876;4.736;2023-05-18T04:51:26;8.25;;;3.13;;
8819;SDS011;4446;50.876;4.736;2023-05-18T04:53:53;7.28;;;2.97;;
8819;SDS011;4446;50.876;4.736;2023-05-18T04:56:20;6.20;;;2.97;;
8819;SDS011;4446;50.876;4.736;2023-05-18T04:58:47;6.97;;;3.00;;
8819;SDS011;4446;50.876;4.736;2023-05-18T05:01:15;7.40;;;3.38;;
8819;SDS011;4446;50.876;4.736;2023-05-18T05:03:44;5.88;;;2.95;;
8819;SDS011;4446;50.876;4.736;2023-05-18T05:06:11;10.15;;;3.22;;
8819;SDS011;4446;50.876;4.736;2023-05-18T05:08:39;5.43;;;3.00;;
8819;SDS011;4446;50.876;4.736;2023-05-18T05:11:06;6.95;;;3.25;;
8819;SDS011;4446;50.876;4.736;2023-05-18T05:13:33;8.00;;;3.65;;
8819;SDS011;4446;50.876;4.736;2023-05-18T05:16:00;8.73;;;3.10;;
8819;SDS011;4446;50.876;4.736;2023-05-18T05:18:28;7.25;;;2.92;;
8819;SDS011;4446;50.876;4.736;2023-05-18T05:20:55;5.90;;;2.85;;
8819;SDS011;4446;50.876;4.736;2023-05-18T05:23:23;4.97;;;2.72;;
8819;SDS011;4446;50.876;4.736;2023-05-18T05:25:52;6.60;;;3.28;;
8819;SDS011;4446;50.876;4.736;2023-05-18T05:28:19;6.90;;;3.28;;
8819;SDS011;4446;50.876;4.736;2023-05-18T05:30:45;7.65;;;3.30;;
8819;SDS011;4446;50.876;4.736;2023-05-18T05:33:12;8.77;;;3.88;;
8819;SDS011;4446;50.876;4.736;2023-05-18T05:35:40;7.63;;;3.20;;
8819;SDS011;4446;50.876;4.736;2023-05-18T05:38:06;6.78;;;3.47;;
8819;SDS011;4446;50.876;4.736;2023-05-18T05:40:33;8.25;;;3.45;;
8819;SDS011;4446;50.876;4.736;2023-05-18T05:43:03;7.03;;;4.10;;
8819;SDS011;4446;50.876;4.736;2023-05-18T05:45:30;5.82;;;3.67;;
8819;SDS011;4446;50.876;4.736;2023-05-18T05:47:57;7.35;;;3.38;;
8819;SDS011;4446;50.876;4.736;2023-05-18T05:50:25;7.63;;;3.33;;
8819;SDS011;4446;50.876;4.736;2023-05-18T05:52:52;11.60;;;3.28;;
8819;SDS011;4446;50.876;4.736;2023-05-18T05:55:20;5.63;;;3.40;;
8819;SDS011;4446;50.876;4.736;2023-05-18T05:57:47;4.78;;;2.92;;
8819;SDS011;4446;50.876;4.736;2023-05-18T06:00:15;6.30;;;3.20;;
8819;SDS011;4446;50.876;4.736;2023-05-18T06:02:43;10.70;;;3.55;;
8819;SDS011;4446;50.876;4.736;2023-05-18T06:05:10;5.22;;;3.00;;
8819;SDS011;4446;50.876;4.736;2023-05-18T06:07:37;7.85;;;3.13;;
8819;SDS011;4446;50.876;4.736;2023-05-18T06:10:05;6.57;;;3.38;;
8819;SDS011;4446;50.876;4.736;2023-05-18T06:12:32;6.35;;;3.95;;
8819;SDS011;4446;50.876;4.736;2023-05-18T06:14:59;5.78;;;3.33;;
8819;SDS011;4446;50.876;4.736;2023-05-18T06:17:28;8.48;;;4.10;;
8819;SDS011;4446;50.876;4.736;2023-05-18T06:19:55;6.20;;;3.42;;
8819;SDS011;4446;50.876;4.736;2023-05-18T06:22:22;10.52;;;4.15;;
8819;SDS011;4446;50.876;4.736;2023-05-18T06:24:49;4.82;;;3.08;;
8819;SDS011;4446;50.876;4.736;2023-05-18T06:27:16;4.93;;;3.20;;
8819;SDS011;4446;50.876;4.736;2023-05-18T06:29:43;7.80;;;3.17;;
8819;SDS011;4446;50.876;4.736;2023-05-18T06:32:11;6.93;;;3.47;;
8819;SDS011;4446;50.876;4.736;2023-05-18T06:34:39;6.63;;;3.15;;
8819;SDS011;4446;50.876;4.736;2023-05-18T06:37:06;5.78;;;3.10;;
8819;SDS011;4446;50.876;4.736;2023-05-18T06:39:35;6.05;;;3.97;;
8819;SDS011;4446;50.876;4.736;2023-05-18T06:42:02;5.88;;;3.40;;
8819;SDS011;4446;50.876;4.736;2023-05-18T06:44:30;7.30;;;3.80;;
8819;SDS011;4446;50.876;4.736;2023-05-18T06:46:56;7.97;;;3.45;;
8819;SDS011;4446;50.876;4.736;2023-05-18T06:49:23;5.35;;;3.22;;
8819;SDS011;4446;50.876;4.736;2023-05-18T06:51:52;5.53;;;3.38;;
8819;SDS011;4446;50.876;4.736;2023-05-18T06:54:19;7.25;;;3.72;;
8819;SDS011;4446;50.876;4.736;2023-05-18T06:56:46;5.35;;;3.10;;
8819;SDS011;4446;50.876;4.736;2023-05-18T06:59:13;4.88;;;3.55;;
8819;SDS011;4446;50.876;4.736;2023-05-18T07:01:40;5.28;;;3.85;;
8819;SDS011;4446;50.876;4.736;2023-05-18T07:04:07;4.97;;;3.22;;
8819;SDS011;4446;50.876;4.736;2023-05-18T07:06:34;9.23;;;3.85;;
8819;SDS011;4446;50.876;4.736;2023-05-18T07:09:03;5.07;;;3.13;;
8819;SDS011;4446;50.876;4.736;2023-05-18T07:11:32;6.40;;;3.70;;
8819;SDS011;4446;50.876;4.736;2023-05-18T07:13:59;6.47;;;3.00;;
8819;SDS011;4446;50.876;4.736;2023-05-18T07:16:26;8.10;;;4.03;;
8819;SDS011;4446;50.876;4.736;2023-05-18T07:18:53;4.97;;;3.42;;
8819;SDS011;4446;50.876;4.736;2023-05-18T07:21:21;5.88;;;3.08;;
8819;SDS011;4446;50.876;4.736;2023-05-18T07:23:48;5.90;;;3.63;;
8819;SDS011;4446;50.876;4.736;2023-05-18T07:26:18;5.68;;;3.35;;
8819;SDS011;4446;50.876;4.736;2023-05-18T07:28:46;5.43;;;4.00;;
8819;SDS011;4446;50.876;4.736;2023-05-18T07:31:13;3.90;;;3.22;;
8819;SDS011;4446;50.876;4.736;2023-05-18T07:33:41;7.00;;;3.70;;
8819;SDS011;4446;50.876;4.736;2023-05-18T07:36:09;6.05;;;3.70;;
8819;SDS011;4446;50.876;4.736;2023-05-18T07:38:36;6.03;;;3.58;;
8819;SDS011;4446;50.876;4.736;2023-05-18T07:41:03;5.55;;;2.95;;
8819;SDS011;4446;50.876;4.736;2023-05-18T07:43:31;6.22;;;3.58;;
8819;SDS011;4446;50.876;4.736;2023-05-18T07:45:58;5.13;;;3.40;;
8819;SDS011;4446;50.876;4.736;2023-05-18T07:48:25;6.03;;;3.88;;
8819;SDS011;4446;50.876;4.736;2023-05-18T07:50:52;6.55;;;3.63;;
8819;SDS011;4446;50.876;4.736;2023-05-18T07:53:19;9.85;;;4.35;;
8819;SDS011;4446;50.876;4.736;2023-05-18T07:55:46;9.82;;;4.40;;
8819;SDS011;4446;50.876;4.736;2023-05-18T07:58:14;6.65;;;3.88;;
8819;SDS011;4446;50.876;4.736;2023-05-18T08:00:42;10.40;;;4.07;;
8819;SDS011;4446;50.876;4.736;2023-05-18T08:03:09;7.47;;;3.97;;
8819;SDS011;4446;50.876;4.736;2023-05-18T08:05:36;7.45;;;4.80;;
8819;SDS011;4446;50.876;4.736;2023-05-18T08:08:03;7.63;;;4.07;;
8819;SDS011;4446;50.876;4.736;2023-05-18T08:10:30;8.88;;;4.22;;
8819;SDS011;4446;50.876;4.736;2023-05-18T08:12:57;5.05;;;3.97;;
8819;SDS011;4446;50.876;4.736;2023-05-18T08:15:24;5.68;;;3.70;;
8819;SDS011;4446;50.876;4.736;2023-05-18T08:17:53;6.45;;;3.30;;
8819;SDS011;4446;50.876;4.736;2023-05-18T08:20:21;5.15;;;3.40;;
8819;SDS011;4446;50.876;4.736;2023-05-18T08:22:49;8.90;;;3.63;;
8819;SDS011;4446;50.876;4.736;2023-05-18T08:25:16;6.95;;;3.60;;
8819;SDS011;4446;50.876;4.736;2023-05-18T08:27:43;7.38;;;4.15;;
8819;SDS011;4446;50.876;4.736;2023-05-18T08:30:11;8.38;;;3.50;;
8819;SDS011;4446;50.876;4.736;2023-05-18T08:32:38;5.90;;;3.00;;
8819;SDS011;4446;50.876;4.736;2023-05-18T08:35:07;9.88;;;3.72;;
8819;SDS011;4446;50.876;4.736;2023-05-18T08:37:35;6.10;;;3.40;;
8819;SDS011;4446;50.876;4.736;2023-05-18T08:40:02;4.50;;;3.50;;
8819;SDS011;4446;50.876;4.736;2023-05-18T08:42:32;11.02;;;3.75;;
8819;SDS011;4446;50.876;4.736;2023-05-18T08:45:06;10.57;;;3.97;;
8819;SDS011;4446;50.876;4.736;2023-05-18T08:47:37;6.78;;;3.30;;
8819;SDS011;4446;50.876;4.736;2023-05-18T08:50:07;5.30;;;3.70;;
8819;SDS011;4446;50.876;4.736;2023-05-18T08:52:39;5.28;;;3.22;;
8819;SDS011;4446;50.876;4.736;2023-05-18T08:55:12;6.07;;;3.50;;
8819;SDS011;4446;50.876;4.736;2023-05-18T08:57:41;7.57;;;3.58;;
8819;SDS011;4446;50.876;4.736;2023-05-18T09:00:14;12.65;;;3.42;;
8819;SDS011;4446;50.876;4.736;2023-05-18T09:02:42;7.15;;;3.47;;
8819;SDS011;4446;50.876;4.736;2023-05-18T09:05:12;5.30;;;3.13;;
8819;SDS011;4446;50.876;4.736;2023-05-18T09:07:40;7.05;;;3.53;;
8819;SDS011;4446;50.876;4.736;2023-05-18T09:10:09;4.38;;;3.10;;
8819;SDS011;4446;50.876;4.736;2023-05-18T09:12:37;6.88;;;3.45;;
8819;SDS011;4446;50.876;4.736;2023-05-18T09:15:07;6.90;;;3.50;;
8819;SDS011;4446;50.876;4.736;2023-05-18T09:17:36;7.32;;;3.70;;
8819;SDS011;4446;50.876;4.736;2023-05-18T09:20:03;6.18;;;4.03;;
8819;SDS011;4446;50.876;4.736;2023-05-18T09:22:33;4.75;;;3.15;;
8819;SDS011;4446;50.876;4.736;2023-05-18T09:25:00;6.10;;;3.45;;
8819;SDS011;4446;50.876;4.736;2023-05-18T09:27:28;4.28;;;3.20;;
8819;SDS011;4446;50.876;4.736;2023-05-18T09:29:56;6.18;;;3.83;;
8819;SDS011;4446;50.876;4.736;2023-05-18T09:32:24;9.10;;;3.80;;
8819;SDS011;4446;50.876;4.736;2023-05-18T09:34:51;5.93;;;3.28;;
8819;SDS011;4446;50.876;4.736;2023-05-18T09:37:20;6.30;;;2.90;;
8819;SDS011;4446;50.876;4.736;2023-05-18T09:39:56;6.93;;;2.95;;
8819;SDS011;4446;50.876;4.736;2023-05-18T09:42:26;3.53;;;2.50;;
8819;SDS011;4446;50.876;4.736;2023-05-18T09:44:57;7.68;;;3.15;;
8819;SDS011;4446;50.876;4.736;2023-05-18T09:47:24;4.20;;;2.67;;
8819;SDS011;4446;50.876;4.736;2023-05-18T09:49:54;4.88;;;2.60;;
8819;SDS011;4446;50.876;4.736;2023-05-18T09:52:22;4.78;;;2.38;;
8819;SDS011;4446;50.876;4.736;2023-05-18T09:54:53;6.63;;;2.70;;
8819;SDS011;4446;50.876;4.736;2023-05-18T09:57:24;5.78;;;2.80;;
8819;SDS011;4446;50.876;4.736;2023-05-18T09:59:54;7.82;;;2.80;;
8819;SDS011;4446;50.876;4.736;2023-05-18T10:02:23;4.63;;;2.83;;
8819;SDS011;4446;50.876;4.736;2023-05-18T10:04:50;3.60;;;2.28;;
8819;SDS011;4446;50.876;4.736;2023-05-18T10:07:18;5.28;;;2.75;;
8819;SDS011;4446;50.876;4.736;2023-05-18T10:09:47;5.63;;;2.35;;
8819;SDS011;4446;50.876;4.736;2023-05-18T10:12:28;5.40;;;2.40;;
8819;SDS011;4446;50.876;4.736;2023-05-18T10:14:55;4.07;;;2.60;;
8819;SDS011;4446;50.876;4.736;2023-05-18T10:17:22;3.80;;;2.65;;
8819;SDS011;4446;50.876;4.736;2023-05-18T10:19:52;2.58;;;2.25;;
8819;SDS011;4446;50.876;4.736;2023-05-18T10:22:22;3.92;;;2.58;;
8819;SDS011;4446;50.876;4.736;2023-05-18T10:24:52;4.80;;;2.63;;
8819;SDS011;4446;50.876;4.736;2023-05-18T10:27:24;3.33;;;2.28;;
8819;SDS011;4446;50.876;4.736;2023-05-18T10:29:53;5.15;;;2.58;;
8819;SDS011;4446;50.876;4.736;2023-05-18T10:32:22;4.38;;;2.60;;
8819;SDS011;4446;50.876;4.736;2023-05-18T10:34:51;5.70;;;2.40;;
8819;SDS011;4446;50.876;4.736;2023-05-18T10:37:19;3.55;;;2.55;;
8819;SDS011;4446;50.876;4.736;2023-05-18T10:39:47;3.17;;;2.50;;
8819;SDS011;4446;50.876;4.736;2023-05-18T10:42:16;5.25;;;2.60;;
8819;SDS011;4446;50.876;4.736;2023-05-18T10:44:46;2.90;;;2.63;;
8819;SDS011;4446;50.876;4.736;2023-05-18T10:47:13;5.50;;;3.05;;
8819;SDS011;4446;50.876;4.736;2023-05-18T10:49:41;3.83;;;3.08;;
8819;SDS011;4446;50.876;4.736;2023-05-18T10:52:09;4.80;;;3.42;;
8819;SDS011;4446;50.876;4.736;2023-05-18T10:54:37;5.20;;;3.10;;
8819;SDS011;4446;50.876;4.736;2023-05-18T10:57:08;4.47;;;3.00;;
8819;SDS011;4446;50.876;4.736;2023-05-18T10:59:37;5.32;;;3.78;;
8819;SDS011;4446;50.876;4.736;2023-05-18T11:02:07;5.82;;;3.22;;
8819;SDS011;4446;50.876;4.736;2023-05-18T11:04:37;4.55;;;3.05;;
8819;SDS011;4446;50.876;4.736;2023-05-18T11:07:08;6.97;;;3.08;;
8819;SDS011;4446;50.876;4.736;2023-05-18T11:09:36;5.60;;;3.28;;
8819;SDS011;4446;50.876;4.736;2023-05-18T11:12:10;6.35;;;3.13;;
8819;SDS011;4446;50.876;4.736;2023-05-18T11:14:45;4.90;;;3.45;;
8819;SDS011;4446;50.876;4.736;2023-05-18T11:17:15;4.65;;;3.15;;
8819;SDS011;4446;50.876;4.736;2023-05-18T11:22:49;4.47;;;2.78;;
8819;SDS011;4446;50.876;4.736;2023-05-18T11:25:36;4.63;;;2.78;;
8819;SDS011;4446;50.876;4.736;2023-05-18T11:28:09;6.35;;;3.10;;
8819;SDS011;4446;50.876;4.736;2023-05-18T11:30:47;5.72;;;3.00;;
8819;SDS011;4446;50.876;4.736;2023-05-18T11:33:20;4.50;;;3.17;;
8819;SDS011;4446;50.876;4.736;2023-05-18T11:36:02;4.80;;;2.85;;
8819;SDS011;4446;50.876;4.736;2023-05-18T11:38:45;6.30;;;2.60;;
8819;SDS011;4446;50.876;4.736;2023-05-18T11:41:26;6.93;;;2.85;;
8819;SDS011;4446;50.876;4.736;2023-05-18T11:46:53;5.07;;;3.03;;
8819;SDS011;4446;50.876;4.736;2023-05-18T11:49:29;4.57;;;3.25;;
8819;SDS011;4446;50.876;4.736;2023-05-18T11:52:01;6.03;;;3.45;;
8819;SDS011;4446;50.876;4.736;2023-05-18T11:54:33;5.88;;;3.58;;
8819;SDS011;4446;50.876;4.736;2023-05-18T11:57:03;6.35;;;3.50;;
8819;SDS011;4446;50.876;4.736;2023-05-18T11:59:31;7.20;;;4.05;;
8819;SDS011;4446;50.876;4.736;2023-05-18T12:02:01;5.22;;;3.30;;
8819;SDS011;4446;50.876;4.736;2023-05-18T12:04:30;6.82;;;3.78;;
8819;SDS011;4446;50.876;4.736;2023-05-18T12:06:58;5.10;;;4.00;;
8819;SDS011;4446;50.876;4.736;2023-05-18T12:09:29;6.68;;;4.13;;
8819;SDS011;4446;50.876;4.736;2023-05-18T12:11:57;5.90;;;3.88;;
8819;SDS011;4446;50.876;4.736;2023-05-18T12:14:24;4.43;;;3.70;;
8819;SDS011;4446;50.876;4.736;2023-05-18T12:16:52;4.00;;;3.60;;
8819;SDS011;4446;50.876;4.736;2023-05-18T12:19:22;6.03;;;3.88;;
8819;SDS011;4446;50.876;4.736;2023-05-18T12:21:51;6.78;;;3.80;;
8819;SDS011;4446;50.876;4.736;2023-05-18T12:24:18;7.32;;;4.00;;
8819;SDS011;4446;50.876;4.736;2023-05-18T12:26:45;5.05;;;3.72;;
8819;SDS011;4446;50.876;4.736;2023-05-18T12:29:12;5.72;;;3.53;;
8819;SDS011;4446;50.876;4.736;2023-05-18T12:31:44;7.45;;;4.22;;
8819;SDS011;4446;50.876;4.736;2023-05-18T12:34:12;6.45;;;4.07;;
8819;SDS011;4446;50.876;4.736;2023-05-18T12:36:40;6.45;;;4.00;;
8819;SDS011;4446;50.876;4.736;2023-05-18T12:39:17;6.97;;;4.20;;
8819;SDS011;4446;50.876;4.736;2023-05-18T12:41:44;7.68;;;4.20;;
8819;SDS011;4446;50.876;4.736;2023-05-18T12:44:11;4.70;;;3.92;;
8819;SDS011;4446;50.876;4.736;2023-05-18T12:46:39;5.68;;;4.95;;
8819;SDS011;4446;50.876;4.736;2023-05-18T12:49:07;7.55;;;4.75;;
8819;SDS011;4446;50.876;4.736;2023-05-18T12:51:35;6.30;;;4.70;;
8819;SDS011;4446;50.876;4.736;2023-05-18T12:54:05;7.78;;;4.63;;
8819;SDS011;4446;50.876;4.736;2023-05-18T12:56:50;5.53;;;4.43;;
8819;SDS011;4446;50.876;4.736;2023-05-18T12:59:23;6.85;;;5.15;;
8819;SDS011;4446;50.876;4.736;2023-05-18T13:01:51;6.03;;;4.82;;
8819;SDS011;4446;50.876;4.736;2023-05-18T13:04:19;8.00;;;4.85;;
8819;SDS011;4446;50.876;4.736;2023-05-18T13:06:46;6.57;;;5.05;;
8819;SDS011;4446;50.876;4.736;2023-05-18T13:09:14;9.40;;;4.97;;
8819;SDS011;4446;50.876;4.736;2023-05-18T13:11:45;6.03;;;4.53;;
8819;SDS011;4446;50.876;4.736;2023-05-18T13:14:18;5.60;;;5.07;;
8819;SDS011;4446;50.876;4.736;2023-05-18T13:16:48;8.23;;;4.72;;
8819;SDS011;4446;50.876;4.736;2023-05-18T13:19:17;5.93;;;3.92;;
8819;SDS011;4446;50.876;4.736;2023-05-18T13:21:44;8.00;;;4.30;;
8819;SDS011;4446;50.876;4.736;2023-05-18T13:24:11;6.40;;;3.70;;
8819;SDS011;4446;50.876;4.736;2023-05-18T13:26:39;5.28;;;4.00;;
8819;SDS011;4446;50.876;4.736;2023-05-18T13:29:06;8.07;;;4.50;;
8819;SDS011;4446;50.876;4.736;2023-05-18T13:31:35;4.07;;;3.58;;
8819;SDS011;4446;50.876;4.736;2023-05-18T13:34:02;6.80;;;3.45;;
8819;SDS011;4446;50.876;4.736;2023-05-18T13:36:29;6.38;;;4.25;;
8819;SDS011;4446;50.876;4.736;2023-05-18T13:38:58;4.50;;;3.28;;
8819;SDS011;4446;50.876;4.736;2023-05-18T13:41:28;4.95;;;3.15;;
8819;SDS011;4446;50.876;4.736;2023-05-18T13:43:55;4.88;;;3.55;;
8819;SDS011;4446;50.876;4.736;2023-05-18T13:46:22;4.35;;;3.00;;
8819;SDS011;4446;50.876;4.736;2023-05-18T13:48:51;7.68;;;3.83;;
8819;SDS011;4446;50.876;4.736;2023-05-18T13:51:18;5.95;;;3.83;;
8819;SDS011;4446;50.876;4.736;2023-05-18T13:53:45;5.15;;;3.45;;
8819;SDS011;4446;50.876;4.736;2023-05-18T13:56:12;6.07;;;3.25;;
8819;SDS011;4446;50.876;4.736;2023-05-18T13:58:39;5.47;;;3.72;;
8819;SDS011;4446;50.876;4.736;2023-05-18T14:01:07;6.68;;;3.50;;
8819;SDS011;4446;50.876;4.736;2023-05-18T14:03:34;5.72;;;3.42;;
8819;SDS011;4446;50.876;4.736;2023-05-18T14:06:03;3.80;;;3.03;;
8819;SDS011;4446;50.876;4.736;2023-05-18T14:08:30;4.80;;;3.33;;
8819;SDS011;4446;50.876;4.736;2023-05-18T14:10:59;6.70;;;3.80;;
8819;SDS011;4446;50.876;4.736;2023-05-18T14:13:26;5.20;;;3.67;;
8819;SDS011;4446;50.876;4.736;2023-05-18T14:15:53;6.30;;;3.60;;
8819;SDS011;4446;50.876;4.736;2023-05-18T14:18:20;6.88;;;3.50;;
8819;SDS011;4446;50.876;4.736;2023-05-18T14:20:47;3.92;;;2.92;;
8819;SDS011;4446;50.876;4.736;2023-05-18T14:23:15;7.28;;;3.30;;
8819;SDS011;4446;50.876;4.736;2023-05-18T14:25:42;5.88;;;3.30;;
8819;SDS011;4446;50.876;4.736;2023-05-18T14:28:10;4.75;;;3.30;;
8819;SDS011;4446;50.876;4.736;2023-05-18T14:30:37;4.07;;;3.28;;
8819;SDS011;4446;50.876;4.736;2023-05-18T14:33:04;6.10;;;3.30;;
8819;SDS011;4446;50.876;4.736;2023-05-18T14:35:31;7.05;;;3.40;;
8819;SDS011;4446;50.876;4.736;2023-05-18T14:37:58;3.90;;;2.60;;
8819;SDS011;4446;50.876;4.736;2023-05-18T14:40:28;6.47;;;3.50;;
8819;SDS011;4446;50.876;4.736;2023-05-18T14:42:55;5.82;;;3.60;;
8819;SDS011;4446;50.876;4.736;2023-05-18T14:45:22;6.18;;;3.20;;
8819;SDS011;4446;50.876;4.736;2023-05-18T14:47:49;4.68;;;3.28;;
8819;SDS011;4446;50.876;4.736;2023-05-18T14:50:16;5.15;;;3.30;;
8819;SDS011;4446;50.876;4.736;2023-05-18T14:52:43;5.53;;;3.22;;
8819;SDS011;4446;50.876;4.736;2023-05-18T14:55:10;7.47;;;3.70;;
8819;SDS011;4446;50.876;4.736;2023-05-18T14:57:38;6.35;;;3.17;;
8819;SDS011;4446;50.876;4.736;2023-05-18T15:00:06;5.53;;;3.63;;
8819;SDS011;4446;50.876;4.736;2023-05-18T15:02:34;6.07;;;3.45;;
8819;SDS011;4446;50.876;4.736;2023-05-18T15:05:02;9.93;;;3.75;;
8819;SDS011;4446;50.876;4.736;2023-05-18T15:07:31;4.50;;;3.38;;
8819;SDS011;4446;50.876;4.736;2023-05-18T15:09:58;5.75;;;3.28;;
8819;SDS011;4446;50.876;4.736;2023-05-18T15:12:25;4.93;;;3.40;;
8819;SDS011;4446;50.876;4.736;2023-05-18T15:14:53;5.07;;;3.40;;
8819;SDS011;4446;50.876;4.736;2023-05-18T15:17:20;6.32;;;3.20;;
8819;SDS011;4446;50.876;4.736;2023-05-18T15:19:47;5.93;;;3.10;;
8819;SDS011;4446;50.876;4.736;2023-05-18T15:22:14;5.47;;;3.38;;
8819;SDS011;4446;50.876;4.736;2023-05-18T15:24:41;7.97;;;3.33;;
8819;SDS011;4446;50.876;4.736;2023-05-18T15:27:08;6.32;;;3.20;;
8819;SDS011;4446;50.876;4.736;2023-05-18T15:29:36;4.40;;;3.47;;
8819;SDS011;4446;50.876;4.736;2023-05-18T15:32:05;4.93;;;3.08;;